sensor_id;sensor_type;location;lat;lon;timestamp;P1;durP1;ratioP1;P2;durP2;ratioP2
76896;SDS011;65856;52.178;21.176;2023-06-14T00:01:45;8.10;;;5.30;;
76896;SDS011;65856;52.178;21.176;2023-06-14T00:04:12;7.90;;;5.10;;
76896;SDS011;65856;52.178;21.176;2023-06-14T00:06:38;8.10;;;5.30;;
76896;SDS011;65856;52.178;21.176;2023-06-14T00:09:04;13.10;;;5.80;;
76896;SDS011;65856;52.178;21.176;2023-06-14T00:11:33;11.20;;;5.50;;
76896;SDS011;65856;52.178;21.176;2023-06-14T00:13:58;8.60;;;5.40;;
76896;SDS011;65856;52.178;21.176;2023-06-14T00:16:24;7.70;;;5.30;;
76896;SDS011;65856;52.178;21.176;2023-06-14T00:18:49;10.80;;;5.60;;
76896;SDS011;65856;52.178;21.176;2023-06-14T00:21:17;7.10;;;5.30;;
76896;SDS011;65856;52.178;21.176;2023-06-14T00:23:43;9.80;;;5.30;;
76896;SDS011;65856;52.178;21.176;2023-06-14T00:26:08;8.60;;;5.90;;
76896;SDS011;65856;52.178;21.176;2023-06-14T00:28:34;8.80;;;5.60;;
76896;SDS011;65856;52.178;21.176;2023-06-14T00:31:00;9.50;;;5.70;;
76896;SDS011;65856;52.178;21.176;2023-06-14T00:33:25;10.00;;;6.10;;
76896;SDS011;65856;52.178;21.176;2023-06-14T00:35:51;7.50;;;5.40;;
76896;SDS011;65856;52.178;21.176;2023-06-14T00:38:19;10.60;;;6.20;;
76896;SDS011;65856;52.178;21.176;2023-06-14T00:40:46;10.20;;;6.00;;
76896;SDS011;65856;52.178;21.176;2023-06-14T00:43:11;10.50;;;6.20;;
76896;SDS011;65856;52.178;21.176;2023-06-14T00:45:37;8.30;;;6.30;;
76896;SDS011;65856;52.178;21.176;2023-06-14T00:48:04;10.70;;;6.00;;
76896;SDS011;65856;52.178;21.176;2023-06-14T00:50:34;9.00;;;6.40;;
76896;SDS011;65856;52.178;21.176;2023-06-14T00:53:01;8.20;;;5.90;;
76896;SDS011;65856;52.178;21.176;2023-06-14T00:55:27;8.70;;;5.70;;
76896;SDS011;65856;52.178;21.176;2023-06-14T00:57:56;8.50;;;6.00;;
76896;SDS011;65856;52.178;21.176;2023-06-14T01:00:22;10.00;;;6.00;;
76896;SDS011;65856;52.178;21.176;2023-06-14T01:02:47;9.30;;;5.50;;
76896;SDS011;65856;52.178;21.176;2023-06-14T01:05:15;8.60;;;5.80;;
76896;SDS011;65856;52.178;21.176;2023-06-14T01:10:46;9.90;;;5.90;;
76896;SDS011;65856;52.178;21.176;2023-06-14T01:13:34;8.10;;;5.80;;
76896;SDS011;65856;52.178;21.176;2023-06-14T01:16:03;10.90;;;6.00;;
76896;SDS011;65856;52.178;21.176;2023-06-14T01:18:30;11.50;;;5.50;;
76896;SDS011;65856;52.178;21.176;2023-06-14T01:20:57;10.30;;;6.30;;
76896;SDS011;65856;52.178;21.176;2023-06-14T01:23:23;8.40;;;5.90;;
76896;SDS011;65856;52.178;21.176;2023-06-14T01:25:49;7.90;;;5.70;;
76896;SDS011;65856;52.178;21.176;2023-06-14T01:28:20;9.40;;;6.40;;
76896;SDS011;65856;52.178;21.176;2023-06-14T01:30:53;11.30;;;6.80;;
76896;SDS011;65856;52.178;21.176;2023-06-14T01:33:26;13.00;;;6.60;;
76896;SDS011;65856;52.178;21.176;2023-06-14T01:35:53;8.30;;;6.20;;
76896;SDS011;65856;52.178;21.176;2023-06-14T01:38:25;9.00;;;6.60;;
76896;SDS011;65856;52.178;21.176;2023-06-14T01:40:53;12.00;;;6.30;;
76896;SDS011;65856;52.178;21.176;2023-06-14T01:43:21;8.90;;;6.40;;
76896;SDS011;65856;52.178;21.176;2023-06-14T01:45:48;9.60;;;6.50;;
76896;SDS011;65856;52.178;21.176;2023-06-14T01:48:15;10.10;;;6.10;;
76896;SDS011;65856;52.178;21.176;2023-06-14T01:50:41;9.80;;;6.20;;
76896;SDS011;65856;52.178;21.176;2023-06-14T01:53:08;13.10;;;5.90;;
76896;SDS011;65856;52.178;21.176;2023-06-14T01:55:35;11.90;;;6.50;;
76896;SDS011;65856;52.178;21.176;2023-06-14T01:58:05;8.10;;;5.70;;
76896;SDS011;65856;52.178;21.176;2023-06-14T02:00:30;10.40;;;6.50;;
76896;SDS011;65856;52.178;21.176;2023-06-14T02:02:56;10.50;;;6.00;;
76896;SDS011;65856;52.178;21.176;2023-06-14T02:05:22;10.90;;;6.30;;
76896;SDS011;65856;52.178;21.176;2023-06-14T02:07:48;11.50;;;6.60;;
76896;SDS011;65856;52.178;21.176;2023-06-14T02:10:13;9.10;;;6.40;;
76896;SDS011;65856;52.178;21.176;2023-06-14T02:12:40;12.30;;;7.00;;
76896;SDS011;65856;52.178;21.176;2023-06-14T02:15:06;9.30;;;6.80;;
76896;SDS011;65856;52.178;21.176;2023-06-14T02:17:33;8.30;;;6.10;;
76896;SDS011;65856;52.178;21.176;2023-06-14T02:19:59;9.00;;;6.50;;
76896;SDS011;65856;52.178;21.176;2023-06-14T02:22:25;11.00;;;6.70;;
76896;SDS011;65856;52.178;21.176;2023-06-14T02:24:51;9.50;;;7.10;;
76896;SDS011;65856;52.178;21.176;2023-06-14T02:27:16;10.50;;;6.90;;
76896;SDS011;65856;52.178;21.176;2023-06-14T02:29:43;8.90;;;6.60;;
76896;SDS011;65856;52.178;21.176;2023-06-14T02:32:08;10.60;;;6.90;;
76896;SDS011;65856;52.178;21.176;2023-06-14T02:34:34;10.10;;;7.40;;
76896;SDS011;65856;52.178;21.176;2023-06-14T02:37:00;11.70;;;7.50;;
76896;SDS011;65856;52.178;21.176;2023-06-14T02:39:28;10.20;;;7.10;;
76896;SDS011;65856;52.178;21.176;2023-06-14T02:41:54;11.20;;;7.30;;
76896;SDS011;65856;52.178;21.176;2023-06-14T02:44:24;11.50;;;7.40;;
76896;SDS011;65856;52.178;21.176;2023-06-14T02:46:56;10.60;;;6.90;;
76896;SDS011;65856;52.178;21.176;2023-06-14T02:49:24;10.30;;;7.50;;
76896;SDS011;65856;52.178;21.176;2023-06-14T02:51:49;10.30;;;6.90;;
76896;SDS011;65856;52.178;21.176;2023-06-14T02:54:15;9.70;;;7.00;;
76896;SDS011;65856;52.178;21.176;2023-06-14T02:56:40;12.70;;;7.30;;
76896;SDS011;65856;52.178;21.176;2023-06-14T02:59:06;10.00;;;7.20;;
76896;SDS011;65856;52.178;21.176;2023-06-14T03:01:34;11.10;;;7.00;;
76896;SDS011;65856;52.178;21.176;2023-06-14T03:04:01;10.90;;;7.80;;
76896;SDS011;65856;52.178;21.176;2023-06-14T03:06:31;10.60;;;7.30;;
76896;SDS011;65856;52.178;21.176;2023-06-14T03:08:57;11.70;;;7.60;;
76896;SDS011;65856;52.178;21.176;2023-06-14T03:11:29;12.90;;;7.40;;
76896;SDS011;65856;52.178;21.176;2023-06-14T03:13:55;11.90;;;6.60;;
76896;SDS011;65856;52.178;21.176;2023-06-14T03:16:22;12.80;;;7.50;;
76896;SDS011;65856;52.178;21.176;2023-06-14T03:18:52;11.00;;;7.40;;
76896;SDS011;65856;52.178;21.176;2023-06-14T03:21:19;11.50;;;7.60;;
76896;SDS011;65856;52.178;21.176;2023-06-14T03:23:48;12.80;;;7.80;;
76896;SDS011;65856;52.178;21.176;2023-06-14T03:26:14;12.60;;;7.50;;
76896;SDS011;65856;52.178;21.176;2023-06-14T03:28:46;12.10;;;7.60;;
76896;SDS011;65856;52.178;21.176;2023-06-14T03:31:14;11.10;;;7.60;;
76896;SDS011;65856;52.178;21.176;2023-06-14T03:33:40;9.30;;;7.20;;
76896;SDS011;65856;52.178;21.176;2023-06-14T03:36:05;8.80;;;6.50;;
76896;SDS011;65856;52.178;21.176;2023-06-14T03:38:32;10.60;;;7.20;;
76896;SDS011;65856;52.178;21.176;2023-06-14T03:40:57;9.80;;;6.50;;
76896;SDS011;65856;52.178;21.176;2023-06-14T03:43:23;11.30;;;6.90;;
76896;SDS011;65856;52.178;21.176;2023-06-14T03:45:48;9.30;;;7.00;;
76896;SDS011;65856;52.178;21.176;2023-06-14T03:48:14;8.90;;;6.30;;
76896;SDS011;65856;52.178;21.176;2023-06-14T03:50:40;9.40;;;6.80;;
76896;SDS011;65856;52.178;21.176;2023-06-14T03:53:08;8.90;;;6.80;;
76896;SDS011;65856;52.178;21.176;2023-06-14T03:55:34;12.10;;;7.10;;
76896;SDS011;65856;52.178;21.176;2023-06-14T03:58:00;12.40;;;7.00;;
76896;SDS011;65856;52.178;21.176;2023-06-14T04:00:26;10.30;;;6.90;;
76896;SDS011;65856;52.178;21.176;2023-06-14T04:02:52;11.10;;;7.30;;
76896;SDS011;65856;52.178;21.176;2023-06-14T04:05:19;8.20;;;6.50;;
76896;SDS011;65856;52.178;21.176;2023-06-14T04:07:45;8.90;;;6.90;;
76896;SDS011;65856;52.178;21.176;2023-06-14T04:10:14;9.00;;;6.90;;
76896;SDS011;65856;52.178;21.176;2023-06-14T04:12:41;12.40;;;7.20;;
76896;SDS011;65856;52.178;21.176;2023-06-14T04:15:08;8.40;;;6.90;;
76896;SDS011;65856;52.178;21.176;2023-06-14T04:17:34;10.60;;;6.90;;
76896;SDS011;65856;52.178;21.176;2023-06-14T04:20:03;10.10;;;6.60;;
76896;SDS011;65856;52.178;21.176;2023-06-14T04:22:31;8.60;;;6.50;;
76896;SDS011;65856;52.178;21.176;2023-06-14T04:24:58;9.90;;;6.80;;
76896;SDS011;65856;52.178;21.176;2023-06-14T04:27:25;8.70;;;7.40;;
76896;SDS011;65856;52.178;21.176;2023-06-14T04:29:55;10.60;;;7.10;;
76896;SDS011;65856;52.178;21.176;2023-06-14T04:32:27;10.10;;;7.30;;
76896;SDS011;65856;52.178;21.176;2023-06-14T04:34:57;11.10;;;7.30;;
76896;SDS011;65856;52.178;21.176;2023-06-14T04:37:24;9.70;;;7.10;;
76896;SDS011;65856;52.178;21.176;2023-06-14T04:39:54;13.10;;;7.30;;
76896;SDS011;65856;52.178;21.176;2023-06-14T04:42:21;12.80;;;7.30;;
76896;SDS011;65856;52.178;21.176;2023-06-14T04:44:55;13.70;;;7.30;;
76896;SDS011;65856;52.178;21.176;2023-06-14T04:47:20;8.80;;;7.10;;
76896;SDS011;65856;52.178;21.176;2023-06-14T04:49:46;9.70;;;7.10;;
76896;SDS011;65856;52.178;21.176;2023-06-14T04:52:13;14.50;;;6.70;;
76896;SDS011;65856;52.178;21.176;2023-06-14T04:54:41;10.20;;;7.20;;
76896;SDS011;65856;52.178;21.176;2023-06-14T04:57:08;15.80;;;7.30;;
76896;SDS011;65856;52.178;21.176;2023-06-14T05:02:05;10.40;;;6.80;;
76896;SDS011;65856;52.178;21.176;2023-06-14T05:04:32;9.50;;;6.90;;
76896;SDS011;65856;52.178;21.176;2023-06-14T05:06:58;9.80;;;6.80;;
76896;SDS011;65856;52.178;21.176;2023-06-14T05:09:23;12.20;;;7.40;;
76896;SDS011;65856;52.178;21.176;2023-06-14T05:11:49;10.90;;;7.00;;
76896;SDS011;65856;52.178;21.176;2023-06-14T05:14:15;11.90;;;7.00;;
76896;SDS011;65856;52.178;21.176;2023-06-14T05:16:41;12.00;;;7.50;;
76896;SDS011;65856;52.178;21.176;2023-06-14T05:19:08;11.50;;;6.80;;
76896;SDS011;65856;52.178;21.176;2023-06-14T05:21:33;11.90;;;7.20;;
76896;SDS011;65856;52.178;21.176;2023-06-14T05:23:59;10.40;;;6.90;;
76896;SDS011;65856;52.178;21.176;2023-06-14T05:26:25;11.50;;;7.30;;
76896;SDS011;65856;52.178;21.176;2023-06-14T05:28:55;9.00;;;6.80;;
76896;SDS011;65856;52.178;21.176;2023-06-14T05:31:23;10.50;;;7.20;;
76896;SDS011;65856;52.178;21.176;2023-06-14T05:33:51;10.50;;;7.40;;
76896;SDS011;65856;52.178;21.176;2023-06-14T05:36:17;10.50;;;7.30;;
76896;SDS011;65856;52.178;21.176;2023-06-14T05:38:43;9.20;;;7.30;;
76896;SDS011;65856;52.178;21.176;2023-06-14T05:41:10;10.30;;;7.50;;
76896;SDS011;65856;52.178;21.176;2023-06-14T05:43:35;9.40;;;7.10;;
76896;SDS011;65856;52.178;21.176;2023-06-14T05:46:01;12.90;;;7.30;;
76896;SDS011;65856;52.178;21.176;2023-06-14T05:48:26;11.40;;;7.10;;
76896;SDS011;65856;52.178;21.176;2023-06-14T05:50:52;10.80;;;7.10;;
76896;SDS011;65856;52.178;21.176;2023-06-14T05:53:17;9.30;;;7.20;;
76896;SDS011;65856;52.178;21.176;2023-06-14T05:55:43;14.10;;;7.10;;
76896;SDS011;65856;52.178;21.176;2023-06-14T05:58:08;11.40;;;6.70;;
76896;SDS011;65856;52.178;21.176;2023-06-14T06:00:34;11.70;;;7.50;;
76896;SDS011;65856;52.178;21.176;2023-06-14T06:02:59;9.60;;;7.30;;
76896;SDS011;65856;52.178;21.176;2023-06-14T06:05:26;12.20;;;7.70;;
76896;SDS011;65856;52.178;21.176;2023-06-14T06:07:51;12.70;;;7.20;;
76896;SDS011;65856;52.178;21.176;2023-06-14T06:10:17;11.70;;;7.40;;
76896;SDS011;65856;52.178;21.176;2023-06-14T06:12:42;12.40;;;7.40;;
76896;SDS011;65856;52.178;21.176;2023-06-14T06:15:09;9.30;;;7.30;;
76896;SDS011;65856;52.178;21.176;2023-06-14T06:17:38;10.20;;;7.00;;
76896;SDS011;65856;52.178;21.176;2023-06-14T06:20:05;10.30;;;7.10;;
76896;SDS011;65856;52.178;21.176;2023-06-14T06:22:34;11.40;;;6.90;;
76896;SDS011;65856;52.178;21.176;2023-06-14T06:24:59;13.30;;;7.50;;
76896;SDS011;65856;52.178;21.176;2023-06-14T06:27:25;9.20;;;6.60;;
76896;SDS011;65856;52.178;21.176;2023-06-14T06:29:51;9.30;;;7.60;;
76896;SDS011;65856;52.178;21.176;2023-06-14T06:32:17;10.40;;;6.40;;
76896;SDS011;65856;52.178;21.176;2023-06-14T06:34:43;12.40;;;7.40;;
76896;SDS011;65856;52.178;21.176;2023-06-14T06:37:08;9.30;;;6.80;;
76896;SDS011;65856;52.178;21.176;2023-06-14T06:39:34;11.60;;;6.90;;
76896;SDS011;65856;52.178;21.176;2023-06-14T06:42:00;8.30;;;6.90;;
76896;SDS011;65856;52.178;21.176;2023-06-14T06:44:26;10.40;;;7.20;;
76896;SDS011;65856;52.178;21.176;2023-06-14T06:46:51;10.20;;;7.40;;
76896;SDS011;65856;52.178;21.176;2023-06-14T06:49:17;10.40;;;7.40;;
76896;SDS011;65856;52.178;21.176;2023-06-14T06:51:42;8.00;;;6.70;;
76896;SDS011;65856;52.178;21.176;2023-06-14T06:54:10;8.40;;;6.80;;
76896;SDS011;65856;52.178;21.176;2023-06-14T06:56:36;12.30;;;7.10;;
76896;SDS011;65856;52.178;21.176;2023-06-14T06:59:01;8.90;;;6.80;;
76896;SDS011;65856;52.178;21.176;2023-06-14T07:01:27;7.80;;;6.30;;
76896;SDS011;65856;52.178;21.176;2023-06-14T07:03:57;10.80;;;7.00;;
76896;SDS011;65856;52.178;21.176;2023-06-14T07:06:22;12.30;;;7.20;;
76896;SDS011;65856;52.178;21.176;2023-06-14T07:08:48;10.30;;;6.90;;
76896;SDS011;65856;52.178;21.176;2023-06-14T07:11:14;9.70;;;6.40;;
76896;SDS011;65856;52.178;21.176;2023-06-14T07:13:39;8.00;;;6.20;;
76896;SDS011;65856;52.178;21.176;2023-06-14T07:16:05;7.80;;;6.80;;
76896;SDS011;65856;52.178;21.176;2023-06-14T07:18:31;10.90;;;6.50;;
76896;SDS011;65856;52.178;21.176;2023-06-14T07:20:57;8.80;;;7.00;;
76896;SDS011;65856;52.178;21.176;2023-06-14T07:23:23;9.40;;;6.80;;
76896;SDS011;65856;52.178;21.176;2023-06-14T07:25:48;13.60;;;7.30;;
76896;SDS011;65856;52.178;21.176;2023-06-14T07:28:15;11.60;;;6.90;;
76896;SDS011;65856;52.178;21.176;2023-06-14T07:30:42;12.30;;;6.30;;
76896;SDS011;65856;52.178;21.176;2023-06-14T07:33:08;9.40;;;6.50;;
76896;SDS011;65856;52.178;21.176;2023-06-14T07:35:33;10.50;;;6.30;;
76896;SDS011;65856;52.178;21.176;2023-06-14T07:37:59;10.00;;;6.30;;
76896;SDS011;65856;52.178;21.176;2023-06-14T07:40:25;9.70;;;6.70;;
76896;SDS011;65856;52.178;21.176;2023-06-14T07:42:50;9.80;;;6.70;;
76896;SDS011;65856;52.178;21.176;2023-06-14T07:45:16;10.60;;;6.50;;
76896;SDS011;65856;52.178;21.176;2023-06-14T07:47:42;12.50;;;6.60;;
76896;SDS011;65856;52.178;21.176;2023-06-14T07:50:08;13.90;;;6.20;;
76896;SDS011;65856;52.178;21.176;2023-06-14T07:52:34;11.30;;;6.10;;
76896;SDS011;65856;52.178;21.176;2023-06-14T07:55:00;10.30;;;6.10;;
76896;SDS011;65856;52.178;21.176;2023-06-14T07:57:25;10.00;;;5.80;;
76896;SDS011;65856;52.178;21.176;2023-06-14T07:59:52;11.40;;;6.50;;
76896;SDS011;65856;52.178;21.176;2023-06-14T08:02:17;9.60;;;6.30;;
76896;SDS011;65856;52.178;21.176;2023-06-14T08:04:43;13.10;;;6.00;;
76896;SDS011;65856;52.178;21.176;2023-06-14T08:07:08;8.40;;;5.90;;
76896;SDS011;65856;52.178;21.176;2023-06-14T08:09:35;14.30;;;6.20;;
76896;SDS011;65856;52.178;21.176;2023-06-14T08:12:04;8.80;;;5.60;;
76896;SDS011;65856;52.178;21.176;2023-06-14T08:14:33;7.20;;;5.70;;
76896;SDS011;65856;52.178;21.176;2023-06-14T08:16:59;7.60;;;5.60;;
76896;SDS011;65856;52.178;21.176;2023-06-14T08:19:25;9.40;;;5.90;;
76896;SDS011;65856;52.178;21.176;2023-06-14T08:21:50;10.60;;;5.80;;
76896;SDS011;65856;52.178;21.176;2023-06-14T08:24:16;9.60;;;5.80;;
76896;SDS011;65856;52.178;21.176;2023-06-14T08:26:42;10.40;;;6.10;;
76896;SDS011;65856;52.178;21.176;2023-06-14T08:29:07;10.20;;;6.00;;
76896;SDS011;65856;52.178;21.176;2023-06-14T08:31:33;9.90;;;6.20;;
76896;SDS011;65856;52.178;21.176;2023-06-14T08:33:59;7.80;;;5.50;;
76896;SDS011;65856;52.178;21.176;2023-06-14T08:36:25;10.30;;;5.60;;
76896;SDS011;65856;52.178;21.176;2023-06-14T08:38:51;10.40;;;6.10;;
76896;SDS011;65856;52.178;21.176;2023-06-14T08:41:23;9.10;;;5.60;;
76896;SDS011;65856;52.178;21.176;2023-06-14T08:43:52;11.80;;;6.20;;
76896;SDS011;65856;52.178;21.176;2023-06-14T08:46:18;7.70;;;5.70;;
76896;SDS011;65856;52.178;21.176;2023-06-14T08:48:49;11.00;;;5.20;;
76896;SDS011;65856;52.178;21.176;2023-06-14T08:51:18;6.90;;;5.00;;
76896;SDS011;65856;52.178;21.176;2023-06-14T08:53:51;7.10;;;5.10;;
76896;SDS011;65856;52.178;21.176;2023-06-14T08:56:25;9.50;;;5.40;;
76896;SDS011;65856;52.178;21.176;2023-06-14T08:58:58;8.00;;;5.10;;
76896;SDS011;65856;52.178;21.176;2023-06-14T09:01:32;11.90;;;5.40;;
76896;SDS011;65856;52.178;21.176;2023-06-14T09:03:59;7.80;;;5.40;;
76896;SDS011;65856;52.178;21.176;2023-06-14T09:06:27;7.90;;;4.60;;
76896;SDS011;65856;52.178;21.176;2023-06-14T09:08:55;8.40;;;5.00;;
76896;SDS011;65856;52.178;21.176;2023-06-14T09:11:24;9.10;;;5.20;;
76896;SDS011;65856;52.178;21.176;2023-06-14T09:13:51;10.90;;;5.70;;
76896;SDS011;65856;52.178;21.176;2023-06-14T09:16:17;9.90;;;5.90;;
76896;SDS011;65856;52.178;21.176;2023-06-14T09:18:44;16.20;;;5.30;;
76896;SDS011;65856;52.178;21.176;2023-06-14T09:23:46;8.30;;;5.60;;
76896;SDS011;65856;52.178;21.176;2023-06-14T09:26:22;10.40;;;5.60;;
76896;SDS011;65856;52.178;21.176;2023-06-14T09:28:53;8.10;;;4.70;;
76896;SDS011;65856;52.178;21.176;2023-06-14T09:31:20;6.80;;;4.80;;
76896;SDS011;65856;52.178;21.176;2023-06-14T09:33:50;10.70;;;4.80;;
76896;SDS011;65856;52.178;21.176;2023-06-14T09:36:23;8.80;;;5.00;;
76896;SDS011;65856;52.178;21.176;2023-06-14T09:38:59;10.00;;;4.80;;
76896;SDS011;65856;52.178;21.176;2023-06-14T09:41:40;8.60;;;4.30;;
76896;SDS011;65856;52.178;21.176;2023-06-14T09:44:08;7.40;;;4.30;;
76896;SDS011;65856;52.178;21.176;2023-06-14T09:46:36;10.40;;;4.30;;
76896;SDS011;65856;52.178;21.176;2023-06-14T09:49:04;6.00;;;3.70;;
76896;SDS011;65856;52.178;21.176;2023-06-14T09:51:30;9.50;;;4.20;;
76896;SDS011;65856;52.178;21.176;2023-06-14T09:54:01;8.40;;;4.20;;
76896;SDS011;65856;52.178;21.176;2023-06-14T09:56:35;6.90;;;4.30;;
76896;SDS011;65856;52.178;21.176;2023-06-14T09:59:09;4.80;;;3.90;;
76896;SDS011;65856;52.178;21.176;2023-06-14T10:01:39;11.30;;;4.20;;
76896;SDS011;65856;52.178;21.176;2023-06-14T10:04:09;9.40;;;4.10;;
76896;SDS011;65856;52.178;21.176;2023-06-14T10:06:40;12.20;;;4.20;;
76896;SDS011;65856;52.178;21.176;2023-06-14T10:09:09;8.40;;;4.20;;
76896;SDS011;65856;52.178;21.176;2023-06-14T10:11:36;5.70;;;4.30;;
76896;SDS011;65856;52.178;21.176;2023-06-14T10:14:06;8.80;;;4.40;;
76896;SDS011;65856;52.178;21.176;2023-06-14T10:17:10;4.80;;;3.90;;
76896;SDS011;65856;52.178;21.176;2023-06-14T10:19:54;9.50;;;4.50;;
76896;SDS011;65856;52.178;21.176;2023-06-14T10:22:32;8.90;;;3.90;;
76896;SDS011;65856;52.178;21.176;2023-06-14T10:25:07;6.30;;;3.70;;
76896;SDS011;65856;52.178;21.176;2023-06-14T10:27:37;7.50;;;3.80;;
76896;SDS011;65856;52.178;21.176;2023-06-14T10:30:05;8.10;;;3.60;;
76896;SDS011;65856;52.178;21.176;2023-06-14T10:32:33;7.00;;;3.50;;
76896;SDS011;65856;52.178;21.176;2023-06-14T10:35:05;11.10;;;3.70;;
76896;SDS011;65856;52.178;21.176;2023-06-14T10:37:32;6.20;;;3.50;;
76896;SDS011;65856;52.178;21.176;2023-06-14T10:39:58;7.40;;;4.00;;
76896;SDS011;65856;52.178;21.176;2023-06-14T10:42:29;7.60;;;3.50;;
76896;SDS011;65856;52.178;21.176;2023-06-14T10:44:58;6.70;;;3.50;;
76896;SDS011;65856;52.178;21.176;2023-06-14T10:47:27;7.30;;;3.90;;
76896;SDS011;65856;52.178;21.176;2023-06-14T10:49:58;5.90;;;3.50;;
76896;SDS011;65856;52.178;21.176;2023-06-14T10:52:42;6.10;;;4.20;;
76896;SDS011;65856;52.178;21.176;2023-06-14T10:55:15;7.20;;;3.60;;
76896;SDS011;65856;52.178;21.176;2023-06-14T10:57:45;10.70;;;3.70;;
76896;SDS011;65856;52.178;21.176;2023-06-14T11:00:17;8.10;;;3.90;;
76896;SDS011;65856;52.178;21.176;2023-06-14T11:06:15;8.30;;;4.40;;
76896;SDS011;65856;52.178;21.176;2023-06-14T11:09:08;5.00;;;3.70;;
76896;SDS011;65856;52.178;21.176;2023-06-14T11:11:37;5.80;;;3.90;;
76896;SDS011;65856;52.178;21.176;2023-06-14T11:14:04;7.80;;;3.80;;
76896;SDS011;65856;52.178;21.176;2023-06-14T11:16:29;6.10;;;4.50;;
76896;SDS011;65856;52.178;21.176;2023-06-14T11:19:01;6.20;;;3.80;;
76896;SDS011;65856;52.178;21.176;2023-06-14T11:21:31;7.00;;;3.70;;
76896;SDS011;65856;52.178;21.176;2023-06-14T11:23:58;7.20;;;3.40;;
76896;SDS011;65856;52.178;21.176;2023-06-14T11:26:25;3.70;;;2.80;;
76896;SDS011;65856;52.178;21.176;2023-06-14T11:28:59;4.80;;;2.80;;
76896;SDS011;65856;52.178;21.176;2023-06-14T11:31:27;10.00;;;3.10;;
76896;SDS011;65856;52.178;21.176;2023-06-14T11:33:54;5.90;;;2.90;;
76896;SDS011;65856;52.178;21.176;2023-06-14T11:36:31;7.20;;;3.30;;
76896;SDS011;65856;52.178;21.176;2023-06-14T11:39:00;4.80;;;2.60;;
76896;SDS011;65856;52.178;21.176;2023-06-14T11:41:39;4.90;;;2.70;;
76896;SDS011;65856;52.178;21.176;2023-06-14T11:44:08;4.30;;;2.60;;
76896;SDS011;65856;52.178;21.176;2023-06-14T11:46:35;6.80;;;2.90;;
76896;SDS011;65856;52.178;21.176;2023-06-14T11:49:02;5.40;;;2.90;;
76896;SDS011;65856;52.178;21.176;2023-06-14T11:51:38;3.50;;;2.60;;
76896;SDS011;65856;52.178;21.176;2023-06-14T11:54:04;3.90;;;2.70;;
76896;SDS011;65856;52.178;21.176;2023-06-14T11:56:31;5.00;;;2.70;;
76896;SDS011;65856;52.178;21.176;2023-06-14T11:58:57;4.30;;;2.80;;
76896;SDS011;65856;52.178;21.176;2023-06-14T12:01:23;5.60;;;2.90;;
76896;SDS011;65856;52.178;21.176;2023-06-14T12:03:50;3.00;;;2.40;;
76896;SDS011;65856;52.178;21.176;2023-06-14T12:06:19;5.60;;;2.30;;
76896;SDS011;65856;52.178;21.176;2023-06-14T12:08:58;3.40;;;1.80;;
76896;SDS011;65856;52.178;21.176;2023-06-14T12:11:23;6.00;;;2.10;;
76896;SDS011;65856;52.178;21.176;2023-06-14T12:13:58;3.90;;;1.90;;
76896;SDS011;65856;52.178;21.176;2023-06-14T12:16:30;6.30;;;2.00;;
76896;SDS011;65856;52.178;21.176;2023-06-14T12:19:01;4.80;;;1.70;;
76896;SDS011;65856;52.178;21.176;2023-06-14T12:21:38;5.60;;;2.20;;
76896;SDS011;65856;52.178;21.176;2023-06-14T12:24:08;5.00;;;1.80;;
76896;SDS011;65856;52.178;21.176;2023-06-14T12:26:40;3.90;;;2.10;;
76896;SDS011;65856;52.178;21.176;2023-06-14T12:29:07;5.10;;;1.90;;
76896;SDS011;65856;52.178;21.176;2023-06-14T12:31:33;4.30;;;1.90;;
76896;SDS011;65856;52.178;21.176;2023-06-14T12:33:59;5.50;;;2.20;;
76896;SDS011;65856;52.178;21.176;2023-06-14T12:36:25;4.50;;;1.90;;
76896;SDS011;65856;52.178;21.176;2023-06-14T12:38:51;3.90;;;2.00;;
76896;SDS011;65856;52.178;21.176;2023-06-14T12:41:21;5.70;;;1.90;;
76896;SDS011;65856;52.178;21.176;2023-06-14T12:43:47;2.80;;;1.90;;
76896;SDS011;65856;52.178;21.176;2023-06-14T12:46:13;4.90;;;1.80;;
76896;SDS011;65856;52.178;21.176;2023-06-14T12:48:39;2.80;;;1.60;;
76896;SDS011;65856;52.178;21.176;2023-06-14T12:51:05;3.10;;;1.70;;
76896;SDS011;65856;52.178;21.176;2023-06-14T12:53:30;4.30;;;1.80;;
76896;SDS011;65856;52.178;21.176;2023-06-14T12:55:56;8.30;;;1.80;;
76896;SDS011;65856;52.178;21.176;2023-06-14T12:58:21;4.70;;;1.80;;
76896;SDS011;65856;52.178;21.176;2023-06-14T13:00:48;2.80;;;1.60;;
76896;SDS011;65856;52.178;21.176;2023-06-14T13:03:14;4.20;;;1.70;;
76896;SDS011;65856;52.178;21.176;2023-06-14T13:05:40;3.10;;;1.80;;
76896;SDS011;65856;52.178;21.176;2023-06-14T13:08:07;1.80;;;1.60;;
76896;SDS011;65856;52.178;21.176;2023-06-14T13:10:36;5.90;;;1.90;;
76896;SDS011;65856;52.178;21.176;2023-06-14T13:13:01;4.30;;;2.00;;
76896;SDS011;65856;52.178;21.176;2023-06-14T13:15:27;5.60;;;2.00;;
76896;SDS011;65856;52.178;21.176;2023-06-14T13:17:53;6.30;;;1.90;;
76896;SDS011;65856;52.178;21.176;2023-06-14T13:20:18;3.00;;;1.60;;
76896;SDS011;65856;52.178;21.176;2023-06-14T13:22:44;3.60;;;2.20;;
76896;SDS011;65856;52.178;21.176;2023-06-14T13:25:09;4.70;;;1.80;;
76896;SDS011;65856;52.178;21.176;2023-06-14T13:27:35;3.10;;;1.70;;
76896;SDS011;65856;52.178;21.176;2023-06-14T13:30:03;4.20;;;1.90;;
76896;SDS011;65856;52.178;21.176;2023-06-14T13:32:30;4.30;;;2.00;;
76896;SDS011;65856;52.178;21.176;2023-06-14T13:34:56;2.60;;;1.80;;
76896;SDS011;65856;52.178;21.176;2023-06-14T13:37:21;4.80;;;1.70;;
76896;SDS011;65856;52.178;21.176;2023-06-14T13:39:47;3.80;;;1.70;;
76896;SDS011;65856;52.178;21.176;2023-06-14T13:42:12;2.10;;;1.70;;
76896;SDS011;65856;52.178;21.176;2023-06-14T13:44:38;7.00;;;1.80;;
76896;SDS011;65856;52.178;21.176;2023-06-14T13:47:03;4.60;;;1.80;;
76896;SDS011;65856;52.178;21.176;2023-06-14T13:49:29;3.50;;;1.90;;
76896;SDS011;65856;52.178;21.176;2023-06-14T13:51:55;9.30;;;2.00;;
76896;SDS011;65856;52.178;21.176;2023-06-14T13:54:21;5.30;;;1.80;;
76896;SDS011;65856;52.178;21.176;2023-06-14T13:56:47;5.10;;;1.90;;
76896;SDS011;65856;52.178;21.176;2023-06-14T13:59:12;3.30;;;2.10;;
76896;SDS011;65856;52.178;21.176;2023-06-14T14:01:38;3.50;;;1.80;;
76896;SDS011;65856;52.178;21.176;2023-06-14T14:04:04;6.80;;;2.00;;
76896;SDS011;65856;52.178;21.176;2023-06-14T14:06:30;4.00;;;1.90;;
76896;SDS011;65856;52.178;21.176;2023-06-14T14:08:56;4.20;;;1.90;;
76896;SDS011;65856;52.178;21.176;2023-06-14T14:11:23;3.00;;;1.80;;
76896;SDS011;65856;52.178;21.176;2023-06-14T14:13:49;4.00;;;1.80;;
76896;SDS011;65856;52.178;21.176;2023-06-14T14:16:14;2.20;;;1.80;;
76896;SDS011;65856;52.178;21.176;2023-06-14T14:18:40;2.40;;;1.60;;
76896;SDS011;65856;52.178;21.176;2023-06-14T14:21:06;3.80;;;2.00;;
76896;SDS011;65856;52.178;21.176;2023-06-14T14:23:31;2.50;;;2.20;;
76896;SDS011;65856;52.178;21.176;2023-06-14T14:25:57;5.30;;;1.90;;
76896;SDS011;65856;52.178;21.176;2023-06-14T14:28:23;3.40;;;1.80;;
76896;SDS011;65856;52.178;21.176;2023-06-14T14:30:48;5.70;;;1.60;;
76896;SDS011;65856;52.178;21.176;2023-06-14T14:33:15;3.50;;;1.60;;
76896;SDS011;65856;52.178;21.176;2023-06-14T14:35:42;3.70;;;2.10;;
76896;SDS011;65856;52.178;21.176;2023-06-14T14:38:11;3.90;;;1.80;;
76896;SDS011;65856;52.178;21.176;2023-06-14T14:40:39;2.30;;;1.80;;
76896;SDS011;65856;52.178;21.176;2023-06-14T14:43:05;2.70;;;1.60;;